createdAt,value
2017-08-27T00:00:10.513Z,0
2017-08-27T00:01:12.125Z,0
2017-08-27T00:02:13.746Z,0
2017-08-27T00:03:17.617Z,0
2017-08-27T00:04:20.299Z,0
2017-08-27T00:05:23.581Z,0
2017-08-27T00:06:25.224Z,0
2017-08-27T00:07:26.856Z,0
2017-08-27T00:08:29.982Z,0
2017-08-27T00:09:32.821Z,0
2017-08-27T00:10:34.432Z,0
2017-08-27T00:11:37.552Z,0
2017-08-27T00:12:39.347Z,0
2017-08-27T00:13:41.638Z,0
2017-08-27T00:14:44.654Z,0
2017-08-27T00:15:47.425Z,0
2017-08-27T00:16:50.281Z,0
2017-08-27T00:17:52.206Z,0
2017-08-27T00:18:55.137Z,0
2017-08-27T00:19:57.081Z,0
2017-08-27T00:20:58.693Z,0
2017-08-27T00:22:00.307Z,0
2017-08-27T00:23:01.925Z,0
2017-08-27T00:24:04.923Z,0
2017-08-27T00:25:08.801Z,0
2017-08-27T00:26:11.595Z,0
2017-08-27T00:27:14.469Z,0
2017-08-27T00:28:16.861Z,0
2017-08-27T00:29:19.928Z,0
2017-08-27T00:30:21.802Z,0
2017-08-27T00:31:23.727Z,0
2017-08-27T00:32:26.555Z,0
2017-08-27T00:33:28.907Z,0
2017-08-27T00:34:32.307Z,0
2017-08-27T00:35:35.237Z,0
2017-08-27T00:36:37.214Z,0
2017-08-27T00:37:39.258Z,0
2017-08-27T00:38:41.686Z,0
2017-08-27T00:39:43.393Z,0
2017-08-27T00:40:46.080Z,0
2017-08-27T00:41:48.195Z,0
2017-08-27T00:42:49.806Z,0
2017-08-27T00:43:51.414Z,0
2017-08-27T00:44:54.287Z,0
2017-08-27T00:45:57.430Z,0
2017-08-27T00:46:59.012Z,0
2017-08-27T00:48:00.628Z,0
2017-08-27T00:49:02.247Z,0
2017-08-27T00:50:03.861Z,0
2017-08-27T00:51:05.470Z,0
2017-08-27T00:52:07.082Z,0
2017-08-27T00:53:08.698Z,0
2017-08-27T00:54:10.314Z,0
2017-08-27T00:55:11.927Z,0
2017-08-27T00:56:13.541Z,0
2017-08-27T00:57:15.160Z,0
2017-08-27T00:58:16.775Z,0
2017-08-27T00:59:18.384Z,0
2017-08-27T01:00:19.997Z,0
2017-08-27T01:01:21.609Z,0
2017-08-27T01:02:23.227Z,0
2017-08-27T01:03:24.845Z,0
2017-08-27T01:04:26.451Z,0
2017-08-27T01:05:28.064Z,0
2017-08-27T01:06:29.683Z,0
2017-08-27T01:07:31.293Z,0
2017-08-27T01:08:32.905Z,0
2017-08-27T01:09:34.526Z,0
2017-08-27T01:10:36.143Z,0
2017-08-27T01:11:37.748Z,0
2017-08-27T01:12:39.363Z,0
2017-08-27T01:13:40.978Z,0
2017-08-27T01:14:42.587Z,0
2017-08-27T01:15:44.206Z,0
2017-08-27T01:16:45.823Z,0
2017-08-27T01:17:47.442Z,0
2017-08-27T01:18:49.051Z,0
2017-08-27T01:19:50.663Z,0
2017-08-27T01:20:52.280Z,0
2017-08-27T01:21:53.895Z,0
2017-08-27T01:22:55.521Z,0
2017-08-27T01:23:57.142Z,0
2017-08-27T01:24:58.759Z,0
2017-08-27T01:26:00.374Z,0
2017-08-27T01:27:01.985Z,0
2017-08-27T01:28:03.601Z,0
2017-08-27T01:29:05.213Z,0
2017-08-27T01:30:06.828Z,0
2017-08-27T01:31:08.439Z,0
2017-08-27T01:32:10.060Z,0
2017-08-27T01:33:11.670Z,0
2017-08-27T01:34:13.281Z,0
2017-08-27T01:35:14.892Z,0
2017-08-27T01:36:16.507Z,0
2017-08-27T01:37:18.122Z,0
2017-08-27T01:38:19.735Z,0
2017-08-27T01:39:21.385Z,0
2017-08-27T01:40:22.971Z,0
2017-08-27T01:41:24.577Z,0
2017-08-27T01:42:26.194Z,0
2017-08-27T01:43:27.809Z,0
2017-08-27T01:44:29.421Z,0
2017-08-27T01:45:31.037Z,0
2017-08-27T01:46:32.656Z,0
2017-08-27T01:47:34.272Z,0
2017-08-27T01:48:35.880Z,0
2017-08-27T01:49:37.493Z,0
2017-08-27T01:50:39.107Z,0
2017-08-27T01:51:40.720Z,0
2017-08-27T01:52:42.339Z,0
2017-08-27T01:53:43.959Z,0
2017-08-27T01:54:45.567Z,0
2017-08-27T01:55:47.193Z,0
2017-08-27T01:56:48.810Z,0
2017-08-27T01:57:50.424Z,0
2017-08-27T01:58:52.042Z,0
2017-08-27T01:59:53.662Z,0
2017-08-27T02:00:55.280Z,0
2017-08-27T02:01:56.907Z,0
2017-08-27T02:02:58.534Z,0
2017-08-27T02:04:00.150Z,0
2017-08-27T02:05:01.765Z,0
2017-08-27T02:06:03.388Z,0
2017-08-27T02:07:05.002Z,0
2017-08-27T02:08:06.632Z,0
2017-08-27T02:09:08.251Z,0
2017-08-27T02:10:09.863Z,0
2017-08-27T02:11:11.480Z,0
2017-08-27T02:12:13.105Z,0
2017-08-27T02:13:14.731Z,0
2017-08-27T02:14:16.346Z,0
2017-08-27T02:15:17.967Z,0
2017-08-27T02:16:19.587Z,0
2017-08-27T02:17:21.213Z,0
2017-08-27T02:18:22.830Z,0
2017-08-27T02:19:24.447Z,0
2017-08-27T02:20:26.073Z,0
2017-08-27T02:21:27.694Z,0
2017-08-27T02:22:29.312Z,0
2017-08-27T02:23:30.942Z,0
2017-08-27T02:24:32.555Z,0
2017-08-27T02:25:34.171Z,0
2017-08-27T02:26:35.794Z,0
2017-08-27T02:27:37.415Z,0
2017-08-27T02:28:39.032Z,0
2017-08-27T02:29:40.651Z,0
2017-08-27T02:30:42.279Z,0
2017-08-27T02:31:43.892Z,0
2017-08-27T02:32:45.520Z,0
2017-08-27T02:33:47.140Z,0
2017-08-27T02:34:48.756Z,0
2017-08-27T02:35:50.378Z,0
2017-08-27T02:36:52.002Z,0
2017-08-27T02:37:53.626Z,0
2017-08-27T02:38:55.237Z,0
2017-08-27T02:39:56.858Z,0
2017-08-27T02:40:58.475Z,0
2017-08-27T02:42:00.105Z,0
2017-08-27T02:43:01.727Z,0
2017-08-27T02:44:03.342Z,0
2017-08-27T02:45:04.960Z,0
2017-08-27T02:46:06.583Z,0
2017-08-27T02:47:08.209Z,0
2017-08-27T02:48:09.823Z,0
2017-08-27T02:49:11.443Z,0
2017-08-27T02:50:13.065Z,0
2017-08-27T02:51:14.694Z,0
2017-08-27T02:52:16.312Z,0
2017-08-27T02:53:17.929Z,0
2017-08-27T02:54:19.558Z,0
2017-08-27T02:55:21.182Z,0
2017-08-27T02:56:22.800Z,0
2017-08-27T02:57:24.426Z,0
2017-08-27T02:58:26.042Z,0
2017-08-27T02:59:27.659Z,0
2017-08-27T03:00:29.286Z,0
2017-08-27T03:01:30.906Z,0
2017-08-27T03:02:32.521Z,0
2017-08-27T03:03:34.142Z,0
2017-08-27T03:04:35.758Z,0
2017-08-27T03:05:37.378Z,0
2017-08-27T03:06:39.004Z,0
2017-08-27T03:07:40.625Z,0
2017-08-27T03:08:42.243Z,0
2017-08-27T03:09:43.857Z,0
2017-08-27T03:10:45.481Z,0
2017-08-27T03:11:47.111Z,0
2017-08-27T03:12:48.730Z,0
2017-08-27T03:13:50.352Z,0
2017-08-27T03:14:51.977Z,0
2017-08-27T03:15:53.594Z,0
2017-08-27T03:16:55.209Z,0
2017-08-27T03:17:56.897Z,0
2017-08-27T03:18:58.497Z,0
2017-08-27T03:20:00.117Z,0
2017-08-27T03:21:01.734Z,0
2017-08-27T03:22:03.370Z,0
2017-08-27T03:23:04.981Z,0
2017-08-27T03:24:06.598Z,0
2017-08-27T03:25:08.230Z,0
2017-08-27T03:26:09.857Z,0
2017-08-27T03:27:11.473Z,0
2017-08-27T03:28:13.108Z,0
2017-08-27T03:29:14.727Z,0
2017-08-27T03:30:16.347Z,0
2017-08-27T03:31:17.961Z,0
2017-08-27T03:32:19.589Z,0
2017-08-27T03:33:21.221Z,0
2017-08-27T03:34:22.838Z,0
2017-08-27T03:35:24.454Z,0
2017-08-27T03:36:26.078Z,0
2017-08-27T03:37:27.694Z,0
2017-08-27T03:38:29.316Z,0
2017-08-27T03:39:30.944Z,0
2017-08-27T03:40:32.560Z,0
2017-08-27T03:41:34.177Z,0
2017-08-27T03:42:35.806Z,0
2017-08-27T03:43:37.421Z,0
2017-08-27T03:44:39.039Z,0
2017-08-27T03:45:40.669Z,0
2017-08-27T03:46:42.294Z,0
2017-08-27T03:47:43.909Z,0
2017-08-27T03:48:45.529Z,0
2017-08-27T03:49:47.149Z,0
2017-08-27T03:50:48.773Z,0
2017-08-27T03:51:50.388Z,0
2017-08-27T03:52:52.008Z,0
2017-08-27T03:53:53.632Z,0
2017-08-27T03:54:55.258Z,0
2017-08-27T03:55:56.876Z,0
2017-08-27T03:56:58.491Z,0
2017-08-27T03:58:00.154Z,0
2017-08-27T03:59:01.788Z,0
2017-08-27T04:00:03.406Z,0
2017-08-27T04:01:05.023Z,0
2017-08-27T04:02:06.646Z,0
2017-08-27T04:03:08.272Z,0
2017-08-27T04:04:09.883Z,0
2017-08-27T04:05:11.502Z,0
2017-08-27T04:06:13.132Z,0
2017-08-27T04:07:14.752Z,0
2017-08-27T04:08:16.367Z,0
2017-08-27T04:09:17.991Z,0
2017-08-27T04:10:19.613Z,0
2017-08-27T04:11:21.229Z,0
2017-08-27T04:12:22.857Z,0
2017-08-27T04:13:24.477Z,0
2017-08-27T04:14:26.091Z,0
2017-08-27T04:15:27.712Z,0
2017-08-27T04:16:29.343Z,0
2017-08-27T04:17:30.963Z,0
2017-08-27T04:18:32.589Z,0
2017-08-27T04:19:34.206Z,0
2017-08-27T04:20:35.824Z,0
2017-08-27T04:21:37.449Z,0
2017-08-27T04:22:39.072Z,0
2017-08-27T04:23:40.693Z,0
2017-08-27T04:24:42.317Z,0
2017-08-27T04:25:43.943Z,0
2017-08-27T04:26:45.564Z,0
2017-08-27T04:27:47.181Z,5
2017-08-27T04:28:48.797Z,5
2017-08-27T04:29:50.426Z,5
2017-08-27T04:30:52.052Z,5
2017-08-27T04:31:53.674Z,5
2017-08-27T04:32:55.301Z,5
2017-08-27T04:33:56.927Z,11
2017-08-27T04:34:58.547Z,11
2017-08-27T04:36:00.167Z,11
2017-08-27T04:37:01.801Z,11
2017-08-27T04:38:03.433Z,11
2017-08-27T04:39:05.065Z,16
2017-08-27T04:40:06.683Z,16
2017-08-27T04:41:08.305Z,16
2017-08-27T04:42:09.930Z,16
2017-08-27T04:43:11.553Z,22
2017-08-27T04:44:13.181Z,22
2017-08-27T04:45:14.804Z,22
2017-08-27T04:46:16.422Z,28
2017-08-27T04:47:18.041Z,28
2017-08-27T04:48:19.673Z,33
2017-08-27T04:49:21.295Z,33
2017-08-27T04:50:22.915Z,39
2017-08-27T04:51:24.546Z,39
2017-08-27T04:52:26.174Z,45
2017-08-27T04:53:27.807Z,45
2017-08-27T04:54:29.422Z,50
2017-08-27T04:55:31.041Z,50
2017-08-27T04:56:32.672Z,50
2017-08-27T04:57:34.297Z,56
2017-08-27T04:58:35.916Z,56
2017-08-27T04:59:37.545Z,56
2017-08-27T05:00:39.176Z,56
2017-08-27T05:01:40.792Z,61
2017-08-27T05:02:42.412Z,61
2017-08-27T05:03:44.036Z,67
2017-08-27T05:04:45.661Z,73
2017-08-27T05:05:47.293Z,73
2017-08-27T05:06:48.913Z,78
2017-08-27T05:07:50.535Z,84
2017-08-27T05:08:52.158Z,84
2017-08-27T05:09:53.780Z,84
2017-08-27T05:10:55.409Z,84
2017-08-27T05:11:57.039Z,84
2017-08-27T05:12:58.659Z,90
2017-08-27T05:14:00.281Z,90
2017-08-27T05:15:01.914Z,95
2017-08-27T05:16:03.538Z,95
2017-08-27T05:17:05.171Z,95
2017-08-27T05:18:06.799Z,95
2017-08-27T05:19:08.420Z,101
2017-08-27T05:20:10.041Z,101
2017-08-27T05:21:11.681Z,106
2017-08-27T05:22:13.308Z,106
2017-08-27T05:23:14.924Z,112
2017-08-27T05:24:16.559Z,112
2017-08-27T05:25:18.178Z,45
2017-08-27T05:26:19.801Z,106
2017-08-27T05:27:21.431Z,106
2017-08-27T05:28:23.056Z,112
2017-08-27T05:29:24.680Z,112
2017-08-27T05:30:26.303Z,112
2017-08-27T05:31:27.936Z,118
2017-08-27T05:32:29.562Z,123
2017-08-27T05:33:31.182Z,129
2017-08-27T05:34:32.806Z,135
2017-08-27T05:35:34.444Z,151
2017-08-27T05:36:36.076Z,151
2017-08-27T05:37:37.693Z,163
2017-08-27T05:38:39.320Z,163
2017-08-27T05:39:40.948Z,168
2017-08-27T05:40:42.567Z,174
2017-08-27T05:41:44.199Z,185
2017-08-27T05:42:45.832Z,208
2017-08-27T05:43:47.456Z,230
2017-08-27T05:44:49.081Z,247
2017-08-27T05:45:50.707Z,253
2017-08-27T05:46:52.340Z,258
2017-08-27T05:47:53.959Z,264
2017-08-27T05:48:55.595Z,270
2017-08-27T05:49:57.216Z,281
2017-08-27T05:50:58.843Z,292
2017-08-27T05:52:00.469Z,298
2017-08-27T05:53:02.094Z,309
2017-08-27T05:54:03.715Z,303
2017-08-27T05:55:05.339Z,309
2017-08-27T05:56:06.976Z,309
2017-08-27T05:57:08.594Z,303
2017-08-27T05:58:10.296Z,292
2017-08-27T05:59:11.919Z,281
2017-08-27T06:00:13.543Z,286
2017-08-27T06:01:15.169Z,298
2017-08-27T06:02:16.790Z,315
2017-08-27T06:03:18.416Z,320
2017-08-27T06:04:20.051Z,309
2017-08-27T06:05:21.670Z,331
2017-08-27T06:06:23.293Z,365
2017-08-27T06:07:24.920Z,388
2017-08-27T06:08:26.559Z,410
2017-08-27T06:09:28.189Z,444
2017-08-27T06:10:29.813Z,472
2017-08-27T06:11:31.444Z,500
2017-08-27T06:12:33.074Z,506
2017-08-27T06:13:34.697Z,528
2017-08-27T06:14:36.319Z,556
2017-08-27T06:15:37.946Z,753
2017-08-27T06:16:39.581Z,973
2017-08-27T06:17:41.214Z,1040
2017-08-27T06:18:42.836Z,1175
2017-08-27T06:19:44.464Z,1276
2017-08-27T06:20:46.094Z,1209
2017-08-27T06:21:47.728Z,1248
2017-08-27T06:22:49.360Z,1276
2017-08-27T06:23:50.996Z,1316
2017-08-27T06:24:52.623Z,1479
2017-08-27T06:25:54.249Z,1468
2017-08-27T06:26:55.886Z,1327
2017-08-27T06:27:57.547Z,1316
2017-08-27T06:28:59.173Z,1344
2017-08-27T06:30:00.805Z,1327
2017-08-27T06:31:02.435Z,1276
2017-08-27T06:32:04.070Z,1271
2017-08-27T06:33:05.695Z,1215
2017-08-27T06:34:07.325Z,1445
2017-08-27T06:35:08.964Z,1501
2017-08-27T06:36:10.592Z,1260
2017-08-27T06:37:12.221Z,1226
2017-08-27T06:38:13.848Z,1462
2017-08-27T06:39:15.492Z,1788
2017-08-27T06:40:17.121Z,1558
2017-08-27T06:41:18.751Z,1350
2017-08-27T06:42:20.379Z,1350
2017-08-27T06:43:22.010Z,1535
2017-08-27T06:44:23.647Z,1659
2017-08-27T06:45:25.274Z,1597
2017-08-27T06:46:27.340Z,1530
2017-08-27T06:47:28.981Z,1642
2017-08-27T06:48:30.616Z,1721
2017-08-27T06:49:32.762Z,1586
2017-08-27T06:50:34.389Z,1743
2017-08-27T06:51:36.023Z,1822
2017-08-27T06:52:41.529Z,1693
2017-08-27T06:53:46.857Z,1496
2017-08-27T06:54:52.352Z,1468
2017-08-27T06:55:57.570Z,618
2017-08-27T06:56:59.151Z,472
2017-08-27T06:58:00.782Z,450
2017-08-27T06:59:02.416Z,478
2017-08-27T07:00:04.038Z,669
2017-08-27T07:01:05.676Z,900
2017-08-27T07:02:07.306Z,928
2017-08-27T07:03:08.937Z,725
2017-08-27T07:04:10.574Z,860
2017-08-27T07:05:12.202Z,1350
2017-08-27T07:06:13.832Z,1766
2017-08-27T07:07:15.482Z,1698
2017-08-27T07:08:17.106Z,1715
2017-08-27T07:09:18.735Z,1546
2017-08-27T07:10:20.366Z,1546
2017-08-27T07:11:22.000Z,1698
2017-08-27T07:12:23.630Z,1845
2017-08-27T07:13:25.261Z,1743
2017-08-27T07:14:26.891Z,1873
2017-08-27T07:15:28.523Z,1856
2017-08-27T07:16:30.164Z,1912
2017-08-27T07:17:31.795Z,1805
2017-08-27T07:18:34.301Z,1777
2017-08-27T07:19:35.934Z,1704
2017-08-27T07:20:37.567Z,1906
2017-08-27T07:21:39.209Z,1957
2017-08-27T07:22:40.841Z,1839
2017-08-27T07:23:42.470Z,1873
2017-08-27T07:24:44.106Z,1850
2017-08-27T07:25:45.740Z,2025
2017-08-27T07:26:47.378Z,2199
2017-08-27T07:27:49.013Z,2295
2017-08-27T07:28:50.654Z,2126
2017-08-27T07:29:52.286Z,1721
2017-08-27T07:30:53.923Z,1091
2017-08-27T07:31:55.569Z,1321
2017-08-27T07:32:57.211Z,2475
2017-08-27T07:33:58.841Z,2486
2017-08-27T07:35:00.475Z,2469
2017-08-27T07:36:02.113Z,2638
2017-08-27T07:37:03.744Z,2728
2017-08-27T07:38:05.376Z,2559
2017-08-27T07:39:07.022Z,2430
2017-08-27T07:40:08.662Z,2491
2017-08-27T07:41:10.290Z,2581
2017-08-27T07:42:11.933Z,2514
2017-08-27T07:43:13.570Z,2851
2017-08-27T07:44:15.213Z,2953
2017-08-27T07:45:16.842Z,2925
2017-08-27T07:46:18.479Z,2998
2017-08-27T07:47:20.115Z,2970
2017-08-27T07:48:21.750Z,3200
2017-08-27T07:49:23.382Z,3453
2017-08-27T07:50:25.018Z,3690
2017-08-27T07:51:26.662Z,3763
2017-08-27T07:52:28.299Z,3600
2017-08-27T07:53:29.941Z,3875
2017-08-27T07:54:31.581Z,4168
2017-08-27T07:55:33.214Z,3802
2017-08-27T07:56:34.848Z,3082
2017-08-27T07:57:36.492Z,2671
2017-08-27T07:58:38.130Z,2593
2017-08-27T07:59:39.767Z,2548
2017-08-27T08:00:41.409Z,2401
2017-08-27T08:01:43.045Z,2351
2017-08-27T08:02:44.675Z,2283
2017-08-27T08:03:46.319Z,2261
2017-08-27T08:04:47.965Z,2261
2017-08-27T08:05:49.601Z,2227
2017-08-27T08:06:51.235Z,2289
2017-08-27T08:07:52.878Z,2289
2017-08-27T08:08:54.510Z,2306
2017-08-27T08:09:56.145Z,2295
2017-08-27T08:10:57.790Z,2283
2017-08-27T08:11:59.428Z,2306
2017-08-27T08:13:01.069Z,2323
2017-08-27T08:14:02.702Z,2458
2017-08-27T08:15:04.350Z,2463
2017-08-27T08:16:05.987Z,2441
2017-08-27T08:17:07.623Z,2413
2017-08-27T08:18:09.260Z,2458
2017-08-27T08:19:10.909Z,2604
2017-08-27T08:20:12.555Z,2548
2017-08-27T08:21:14.180Z,2570
2017-08-27T08:22:15.820Z,2581
2017-08-27T08:23:17.458Z,2559
2017-08-27T08:24:19.103Z,2565
2017-08-27T08:25:20.741Z,2581
2017-08-27T08:26:22.377Z,2593
2017-08-27T08:27:24.025Z,2587
2017-08-27T08:28:25.667Z,2643
2017-08-27T08:29:27.304Z,2677
2017-08-27T08:30:28.943Z,2604
2017-08-27T08:31:30.584Z,2700
2017-08-27T08:32:32.231Z,2745
2017-08-27T08:33:33.866Z,2733
2017-08-27T08:34:35.511Z,2739
2017-08-27T08:35:37.145Z,2700
2017-08-27T08:36:38.785Z,2677
2017-08-27T08:37:40.436Z,2632
2017-08-27T08:38:42.073Z,2666
2017-08-27T08:39:43.709Z,2655
2017-08-27T08:40:45.346Z,2700
2017-08-27T08:41:46.983Z,2700
2017-08-27T08:42:48.634Z,2655
2017-08-27T08:43:50.280Z,2553
2017-08-27T08:44:51.919Z,2593
2017-08-27T08:45:53.560Z,2531
2017-08-27T08:46:55.218Z,2295
2017-08-27T08:47:56.834Z,2356
2017-08-27T08:48:58.475Z,2525
2017-08-27T08:50:00.113Z,2610
2017-08-27T08:51:01.754Z,2666
2017-08-27T08:52:03.398Z,2739
2017-08-27T08:53:05.031Z,2683
2017-08-27T08:54:06.669Z,2745
2017-08-27T08:55:08.316Z,2643
2017-08-27T08:56:09.951Z,2553
2017-08-27T08:57:11.593Z,2356
2017-08-27T08:58:13.232Z,2655
2017-08-27T08:59:14.878Z,2638
2017-08-27T09:00:16.523Z,2626
2017-08-27T09:01:18.200Z,2593
2017-08-27T09:02:20.792Z,2565
2017-08-27T09:03:22.447Z,2542
2017-08-27T09:04:24.090Z,2508
2017-08-27T09:05:25.731Z,2548
2017-08-27T09:06:27.375Z,2548
2017-08-27T09:07:29.012Z,2373
2017-08-27T09:08:30.649Z,2295
2017-08-27T09:09:32.299Z,2250
2017-08-27T09:10:33.948Z,2401
2017-08-27T09:11:35.587Z,2829
2017-08-27T09:12:37.238Z,3926
2017-08-27T09:13:38.878Z,5169
2017-08-27T09:14:40.511Z,5180
2017-08-27T09:15:42.155Z,4916
2017-08-27T09:16:43.855Z,4865
2017-08-27T09:17:45.506Z,4798
2017-08-27T09:18:47.155Z,4843
2017-08-27T09:19:48.795Z,5000
2017-08-27T09:21:44.631Z,5203
2017-08-27T09:22:46.268Z,5197
2017-08-27T09:24:38.044Z,4826
2017-08-27T09:25:39.694Z,4972
2017-08-27T09:27:31.421Z,4685
2017-08-27T09:28:33.060Z,4843
2017-08-27T09:30:24.823Z,5096
2017-08-27T09:31:26.473Z,5276
2017-08-27T09:33:18.216Z,4955
2017-08-27T09:34:19.906Z,4860
2017-08-27T09:36:11.669Z,4888
2017-08-27T09:37:13.307Z,4753
2017-08-27T09:39:05.895Z,3493
2017-08-27T09:40:07.531Z,4680
2017-08-27T09:41:59.314Z,4983
2017-08-27T09:43:00.955Z,4955
2017-08-27T09:44:52.694Z,4421
2017-08-27T09:45:54.339Z,4933
2017-08-27T09:47:46.098Z,3825
2017-08-27T09:48:47.734Z,3380
2017-08-27T09:50:39.476Z,3391
2017-08-27T09:51:41.119Z,4134
2017-08-27T09:53:32.878Z,4545
2017-08-27T09:54:34.519Z,4455
2017-08-27T09:56:26.254Z,1378
2017-08-27T09:57:27.891Z,4933
2017-08-27T09:59:19.665Z,4978
2017-08-27T10:00:21.303Z,4803
2017-08-27T10:02:13.037Z,4770
2017-08-27T10:03:14.675Z,4809
2017-08-27T10:05:07.282Z,5169
2017-08-27T10:06:08.925Z,5231
2017-08-27T10:08:00.653Z,5124
2017-08-27T10:09:02.304Z,5152
2017-08-27T10:10:54.066Z,5400
2017-08-27T10:11:55.710Z,5411
2017-08-27T10:13:47.452Z,4815
2017-08-27T10:14:49.093Z,4921
2017-08-27T10:16:40.861Z,5439
2017-08-27T10:17:42.502Z,5495
2017-08-27T10:19:34.238Z,5433
2017-08-27T10:20:35.891Z,5242
2017-08-27T10:22:28.657Z,5135
2017-08-27T10:23:30.294Z,5056
2017-08-27T10:25:22.048Z,5045
2017-08-27T10:26:23.683Z,5101
2017-08-27T10:28:15.446Z,5152
2017-08-27T10:29:17.086Z,5101
2017-08-27T10:31:08.826Z,4950
2017-08-27T10:32:10.466Z,5073
2017-08-27T10:34:02.253Z,5045
2017-08-27T10:35:03.901Z,5006
2017-08-27T10:36:55.634Z,4854
2017-08-27T10:37:57.283Z,4871
2017-08-27T10:39:49.048Z,4848
2017-08-27T10:40:50.682Z,4753
2017-08-27T10:42:42.417Z,4950
2017-08-27T10:43:44.070Z,4831
2017-08-27T10:45:35.828Z,4950
2017-08-27T10:46:37.469Z,4989
2017-08-27T10:48:29.214Z,4275
2017-08-27T10:49:30.853Z,3808
2017-08-27T10:51:23.463Z,4359
2017-08-27T10:52:25.103Z,4590
2017-08-27T10:54:16.841Z,4545
2017-08-27T10:55:18.479Z,4533
2017-08-27T10:57:10.259Z,4685
2017-08-27T10:58:11.904Z,4736
2017-08-27T11:00:03.642Z,4680
2017-08-27T11:01:05.291Z,4606
2017-08-27T11:02:57.062Z,4550
2017-08-27T11:03:58.714Z,4590
2017-08-27T11:05:50.455Z,4545
2017-08-27T11:06:52.105Z,4539
2017-08-27T11:08:43.868Z,4601
2017-08-27T11:09:45.512Z,4601
2017-08-27T11:11:37.244Z,4539
2017-08-27T11:12:38.896Z,4471
2017-08-27T11:14:30.653Z,4455
2017-08-27T11:15:32.297Z,4443
2017-08-27T11:17:24.041Z,4426
2017-08-27T11:18:25.683Z,4488
2017-08-27T11:20:17.447Z,4252
2017-08-27T11:21:19.098Z,4432
2017-08-27T11:23:10.839Z,4314
2017-08-27T11:24:12.473Z,4196
2017-08-27T11:26:04.238Z,4511
2017-08-27T11:27:05.887Z,4573
2017-08-27T11:28:58.471Z,4528
2017-08-27T11:30:00.112Z,4421
2017-08-27T11:31:51.870Z,4359
2017-08-27T11:32:53.514Z,4522
2017-08-27T11:34:45.240Z,4201
2017-08-27T11:35:46.886Z,4123
2017-08-27T11:37:38.645Z,4353
2017-08-27T11:38:40.294Z,4348
2017-08-27T11:40:32.032Z,4241
2017-08-27T11:41:33.666Z,4128
2017-08-27T11:43:25.428Z,4050
2017-08-27T11:44:27.064Z,4196
2017-08-27T11:46:18.798Z,4140
2017-08-27T11:47:20.434Z,4134
2017-08-27T11:49:12.187Z,4033
2017-08-27T11:50:13.835Z,4111
2017-08-27T11:52:06.422Z,3813
2017-08-27T11:53:08.056Z,3735
2017-08-27T11:54:59.827Z,4033
2017-08-27T11:56:01.468Z,4061
2017-08-27T11:57:53.195Z,3965
2017-08-27T11:58:54.838Z,3903
2017-08-27T12:00:47.587Z,3628
2017-08-27T12:01:49.236Z,3690
2017-08-27T12:03:40.987Z,3633
2017-08-27T12:04:42.625Z,3684
2017-08-27T12:06:34.386Z,3841
2017-08-27T12:07:36.022Z,3701
2017-08-27T12:09:27.761Z,3656
2017-08-27T12:10:29.404Z,3718
2017-08-27T12:12:21.687Z,3628
2017-08-27T12:13:23.326Z,3661
2017-08-27T12:15:15.068Z,3633
2017-08-27T12:16:16.706Z,3504
2017-08-27T12:18:08.450Z,3600
2017-08-27T12:19:10.083Z,3639
2017-08-27T12:21:01.816Z,3307
2017-08-27T12:22:03.457Z,3211
2017-08-27T12:23:55.212Z,3414
2017-08-27T12:24:56.847Z,3425
2017-08-27T12:26:48.580Z,3217
2017-08-27T12:27:50.213Z,3166
2017-08-27T12:29:41.972Z,3211
2017-08-27T12:30:43.605Z,3121
2017-08-27T12:32:35.330Z,3121
2017-08-27T12:33:36.963Z,3420
2017-08-27T12:35:28.721Z,3166
2017-08-27T12:36:30.358Z,3127
2017-08-27T12:38:22.075Z,3105
2017-08-27T12:39:23.724Z,2733
2017-08-27T12:41:15.484Z,3099
2017-08-27T12:42:17.121Z,3116
2017-08-27T12:44:08.846Z,2958
2017-08-27T12:45:10.479Z,2919
2017-08-27T12:47:02.236Z,2818
2017-08-27T12:48:03.870Z,2925
2017-08-27T12:49:55.591Z,2981
2017-08-27T12:50:57.235Z,2908
2017-08-27T12:52:48.997Z,1721
2017-08-27T12:53:50.620Z,1130
2017-08-27T12:55:42.346Z,1074
2017-08-27T12:56:43.988Z,1035
2017-08-27T12:58:35.740Z,939
2017-08-27T12:59:37.371Z,793
2017-08-27T13:01:29.088Z,680
2017-08-27T13:02:30.730Z,596
2017-08-27T13:04:22.473Z,781
2017-08-27T13:05:24.106Z,787
2017-08-27T13:07:15.830Z,748
2017-08-27T13:08:17.461Z,748
2017-08-27T13:10:09.206Z,742
2017-08-27T13:11:10.831Z,736
2017-08-27T13:13:02.553Z,691
2017-08-27T13:14:04.194Z,708
2017-08-27T13:15:55.943Z,731
2017-08-27T13:16:57.571Z,725
2017-08-27T13:18:49.293Z,736
2017-08-27T13:19:50.924Z,770
2017-08-27T13:21:42.671Z,849
2017-08-27T13:22:44.315Z,866
2017-08-27T13:24:36.030Z,883
2017-08-27T13:25:37.662Z,877
2017-08-27T13:27:29.908Z,781
2017-08-27T13:28:31.536Z,691
2017-08-27T13:29:33.163Z,630
2017-08-27T13:30:34.803Z,585
2017-08-27T13:31:36.435Z,562
2017-08-27T13:32:38.067Z,585
2017-08-27T13:33:39.696Z,590
2017-08-27T13:34:41.328Z,601
2017-08-27T13:35:42.964Z,630
2017-08-27T13:36:44.601Z,624
2017-08-27T13:37:46.227Z,573
2017-08-27T13:38:47.880Z,551
2017-08-27T13:39:49.514Z,534
2017-08-27T13:40:51.156Z,523
2017-08-27T13:41:52.786Z,511
2017-08-27T13:42:54.413Z,523
2017-08-27T13:43:56.046Z,506
2017-08-27T13:44:57.682Z,495
2017-08-27T13:45:59.304Z,506
2017-08-27T13:47:00.934Z,523
2017-08-27T13:48:02.576Z,551
2017-08-27T13:49:04.211Z,568
2017-08-27T13:50:05.840Z,568
2017-08-27T13:51:07.484Z,596
2017-08-27T13:52:09.101Z,568
2017-08-27T13:53:10.730Z,523
2017-08-27T13:54:12.369Z,506
2017-08-27T13:55:14.004Z,500
2017-08-27T13:56:15.634Z,478
2017-08-27T13:57:17.263Z,472
2017-08-27T13:58:18.890Z,466
2017-08-27T13:59:20.516Z,466
2017-08-27T14:00:22.165Z,455
2017-08-27T14:01:23.804Z,455
2017-08-27T14:02:25.429Z,461
2017-08-27T14:03:27.092Z,483
2017-08-27T14:04:28.696Z,495
2017-08-27T14:05:30.317Z,500
2017-08-27T14:06:31.947Z,506
2017-08-27T14:07:33.579Z,523
2017-08-27T14:08:35.212Z,551
2017-08-27T14:09:36.835Z,585
2017-08-27T14:10:38.472Z,596
2017-08-27T14:11:40.104Z,590
2017-08-27T14:12:41.726Z,585
2017-08-27T14:13:43.355Z,596
2017-08-27T14:14:44.982Z,613
2017-08-27T14:15:46.621Z,624
2017-08-27T14:16:48.246Z,624
2017-08-27T14:17:49.871Z,590
2017-08-27T14:18:51.508Z,556
2017-08-27T14:19:53.136Z,545
2017-08-27T14:20:54.762Z,534
2017-08-27T14:21:56.401Z,523
2017-08-27T14:22:58.035Z,511
2017-08-27T14:23:59.661Z,506
2017-08-27T14:25:01.289Z,511
2017-08-27T14:26:02.918Z,511
2017-08-27T14:27:04.545Z,506
2017-08-27T14:28:06.171Z,478
2017-08-27T14:29:07.814Z,461
2017-08-27T14:30:09.434Z,450
2017-08-27T14:31:11.063Z,450
2017-08-27T14:32:12.696Z,461
2017-08-27T14:33:14.330Z,450
2017-08-27T14:34:15.955Z,433
2017-08-27T14:35:17.590Z,421
2017-08-27T14:36:19.224Z,405
2017-08-27T14:37:20.847Z,388
2017-08-27T14:38:22.476Z,393
2017-08-27T14:39:24.115Z,405
2017-08-27T14:40:25.743Z,410
2017-08-27T14:41:27.368Z,416
2017-08-27T14:42:28.997Z,416
2017-08-27T14:43:30.634Z,421
2017-08-27T14:44:32.268Z,399
2017-08-27T14:45:33.891Z,444
2017-08-27T14:46:35.519Z,450
2017-08-27T14:47:37.151Z,489
2017-08-27T14:48:38.785Z,315
2017-08-27T14:49:40.410Z,495
2017-08-27T14:50:42.033Z,489
2017-08-27T14:51:43.670Z,489
2017-08-27T14:52:45.299Z,495
2017-08-27T14:53:46.929Z,500
2017-08-27T14:54:48.555Z,438
2017-08-27T14:55:50.184Z,438
2017-08-27T14:56:51.819Z,438
2017-08-27T14:57:53.444Z,438
2017-08-27T14:58:55.070Z,450
2017-08-27T14:59:56.707Z,489
2017-08-27T15:00:58.339Z,495
2017-08-27T15:01:59.963Z,489
2017-08-27T15:03:01.595Z,478
2017-08-27T15:04:03.222Z,472
2017-08-27T15:05:04.852Z,455
2017-08-27T15:06:06.493Z,455
2017-08-27T15:07:08.132Z,444
2017-08-27T15:08:09.755Z,438
2017-08-27T15:09:11.386Z,433
2017-08-27T15:10:13.014Z,427
2017-08-27T15:11:14.646Z,410
2017-08-27T15:12:16.280Z,416
2017-08-27T15:13:17.909Z,410
2017-08-27T15:14:19.549Z,405
2017-08-27T15:15:21.188Z,388
2017-08-27T15:16:22.810Z,382
2017-08-27T15:17:24.435Z,371
2017-08-27T15:18:26.068Z,365
2017-08-27T15:19:27.703Z,348
2017-08-27T15:20:29.332Z,337
2017-08-27T15:21:30.959Z,331
2017-08-27T15:22:32.591Z,320
2017-08-27T15:23:34.220Z,320
2017-08-27T15:24:35.843Z,303
2017-08-27T15:25:37.469Z,303
2017-08-27T15:26:39.108Z,298
2017-08-27T15:27:40.745Z,286
2017-08-27T15:28:42.380Z,275
2017-08-27T15:29:44.003Z,281